Time;durP1;ratioP1;P1;durP2;ratioP2;P2;SDS_P1;SDS_P2;PMS_P1;PMS_P2;Temp;Humidity;BMP_temperature;BMP_pressure;BME280_temperature;BME280_humidity;BME280_pressure;Samples;Min_cycle;Max_cycle;Signal;HPM_P1;HPM_P2
2023/05/30 00:01:14;;;;;;;13.27;2.65;;;;;;;10.51;73.32;102575.81;5032261;28;20048;-69
2023/05/30 00:03:43;;;;;;;12.27;3.00;;;;;;;10.48;73.39;102581.00;5031648;28;20388;-69
2023/05/30 00:06:08;;;;;;;12.25;2.72;;;;;;;10.43;74.03;102570.56;5031665;28;20029;-69
2023/05/30 00:08:33;;;;;;;13.35;3.33;;;;;;;10.42;74.84;102588.81;5032042;28;20036;-69
2023/05/30 00:10:59;;;;;;;17.02;2.88;;;;;;;10.25;75.94;102576.50;5031083;28;20021;-69
2023/05/30 00:13:24;;;;;;;11.68;2.80;;;;;;;10.36;76.47;102594.84;5032379;28;20029;-69
2023/05/30 00:15:51;;;;;;;16.83;3.90;;;;;;;10.32;76.97;102601.78;5031664;28;20419;-69
2023/05/30 00:18:16;;;;;;;16.02;3.30;;;;;;;10.30;76.80;102597.44;5031211;28;20131;-69
2023/05/30 00:20:44;;;;;;;16.90;3.15;;;;;;;10.29;77.04;102599.16;5031880;28;20116;-69
2023/05/30 00:23:10;;;;;;;13.10;3.25;;;;;;;10.25;78.70;102601.72;5029075;28;20025;-69
2023/05/30 00:25:37;;;;;;;16.15;3.20;;;;;;;10.16;78.80;102588.63;5031166;28;20032;-69
2023/05/30 00:28:02;;;;;;;11.27;3.05;;;;;;;10.13;78.74;102584.25;5031888;28;20458;-69
2023/05/30 00:30:27;;;;;;;16.15;3.22;;;;;;;10.14;78.99;102592.97;5032045;28;20036;-69
2023/05/30 00:32:53;;;;;;;14.65;3.05;;;;;;;10.11;79.49;102598.16;5030899;28;20041;-69
2023/05/30 00:35:18;;;;;;;16.75;3.28;;;;;;;10.07;79.73;102594.63;5032030;28;20504;-69
2023/05/30 00:37:43;;;;;;;14.63;3.70;;;;;;;10.05;79.69;102593.78;5031547;28;20030;-69
2023/05/30 00:40:09;;;;;;;18.50;3.78;;;;;;;10.02;80.47;102594.63;5031287;28;20492;-69
2023/05/30 00:42:35;;;;;;;10.85;2.55;;;;;;;9.95;81.35;102603.25;5031751;28;20113;-69
2023/05/30 00:45:00;;;;;;;15.52;3.63;;;;;;;10.01;80.73;102607.66;5031531;28;20461;-69
2023/05/30 00:47:25;;;;;;;17.77;3.17;;;;;;;9.91;81.69;102603.22;5032768;28;20064;-69
2023/05/30 00:49:51;;;;;;;10.90;2.78;;;;;;;9.89;82.66;102610.16;5034848;28;20117;-69
2023/05/30 00:52:17;;;;;;;14.55;3.10;;;;;;;9.83;82.56;102613.56;5035710;28;20026;-69
2023/05/30 00:54:45;;;;;;;15.45;3.08;;;;;;;9.81;84.61;102615.31;5034686;28;20030;-69
2023/05/30 00:57:10;;;;;;;12.18;2.95;;;;;;;9.80;83.02;102618.75;5035497;28;20104;-69
2023/05/30 00:59:36;;;;;;;12.80;3.47;;;;;;;9.78;83.62;102621.38;5035401;28;20116;-69
2023/05/30 01:02:02;;;;;;;13.57;3.85;;;;;;;9.80;84.00;102618.75;5033920;28;20112;-69
2023/05/30 01:04:27;;;;;;;12.20;2.80;;;;;;;9.80;83.64;102618.75;5035119;28;20037;-69
2023/05/30 01:06:53;;;;;;;13.73;3.83;;;;;;;9.78;84.12;102610.09;5035092;28;20026;-68
2023/05/30 01:09:18;;;;;;;14.82;3.92;;;;;;;9.69;85.27;102613.47;5034275;28;20358;-69
2023/05/30 01:12:06;;;;;;;15.60;3.70;;;;;;;9.66;85.49;102616.06;5035046;28;20022;-69
2023/05/30 01:14:43;;;;;;;13.38;3.05;;;;;;;9.63;85.77;102617.75;5033348;28;20025;-69
2023/05/30 01:17:19;;;;;;;11.32;3.13;;;;;;;9.48;86.33;102606.34;5035178;28;20037;-69
2023/05/30 01:20:07;;;;;;;17.13;3.72;;;;;;;9.44;85.87;102599.34;5029122;28;20061;-69
2023/05/30 01:22:54;;;;;;;21.15;4.25;;;;;;;9.45;86.18;102606.31;5029115;28;20392;-69
2023/05/30 01:25:22;;;;;;;17.73;3.17;;;;;;;9.45;87.37;102614.13;5034894;28;20041;-69
2023/05/30 01:28:09;;;;;;;12.38;3.20;;;;;;;9.48;86.75;102621.06;5034562;28;20044;-69
2023/05/30 01:30:37;;;;;;;12.18;3.80;;;;;;;9.35;87.55;102615.78;5034771;28;20140;-69
2023/05/30 01:33:05;;;;;;;15.68;3.60;;;;;;;9.33;88.02;102606.19;5034709;28;20025;-69
2023/05/30 01:35:30;;;;;;;15.70;4.00;;;;;;;9.32;88.18;102620.09;5033734;28;20032;-69
2023/05/30 01:37:55;;;;;;;16.23;4.28;;;;;;;9.28;88.61;102619.16;5034525;28;20108;-69
2023/05/30 01:40:24;;;;;;;16.70;3.38;;;;;;;9.32;88.99;102614.88;5034758;28;20022;-69
2023/05/30 01:42:57;;;;;;;12.90;3.65;;;;;;;9.31;89.11;102618.31;5027862;28;20029;-69
2023/05/30 01:45:39;;;;;;;13.15;3.30;;;;;;;9.33;88.94;102616.63;5030662;28;20033;-69
2023/05/30 01:48:13;;;;;;;18.90;3.85;;;;;;;9.29;90.28;102620.06;5029816;28;20080;-69
2023/05/30 01:50:45;;;;;;;16.83;3.95;;;;;;;9.31;89.86;102626.13;5033581;28;20079;-69
2023/05/30 01:53:16;;;;;;;19.77;3.92;;;;;;;9.31;89.93;102618.31;5034466;28;20120;-69
2023/05/30 01:55:44;;;;;;;15.93;3.78;;;;;;;9.27;90.38;102627.81;5033951;28;20072;-69
2023/05/30 01:58:13;;;;;;;11.45;3.63;;;;;;;9.22;90.69;102631.22;5032126;28;20469;-69
2023/05/30 02:00:39;;;;;;;15.88;3.53;;;;;;;9.19;90.76;102624.28;5032626;28;20030;-69
2023/05/30 02:03:04;;;;;;;18.42;3.55;;;;;;;9.11;91.11;102620.72;5033934;28;20086;-69
2023/05/30 02:05:29;;;;;;;14.48;3.92;;;;;;;9.16;91.62;102631.19;5033290;28;20466;-69
2023/05/30 02:07:55;;;;;;;13.00;4.15;;;;;;;9.11;91.49;102632.00;5033501;28;20048;-69
2023/05/30 02:10:20;;;;;;;17.50;3.92;;;;;;;9.11;91.68;102626.78;5033164;28;20041;-69
2023/05/30 02:12:45;;;;;;;13.50;3.70;;;;;;;9.10;91.37;102638.06;5033561;28;20111;-69
2023/05/30 02:15:11;;;;;;;15.85;4.03;;;;;;;9.11;91.91;102637.19;5033916;28;20460;-69
2023/05/30 02:17:36;;;;;;;14.27;3.92;;;;;;;9.08;92.91;102647.56;5033239;28;20036;-69
2023/05/30 02:20:01;;;;;;;16.50;4.00;;;;;;;9.07;92.62;102650.16;5033608;28;20511;-69
2023/05/30 02:22:26;;;;;;;13.77;3.60;;;;;;;9.00;92.56;102638.81;5033460;28;20034;-69
2023/05/30 02:24:52;;;;;;;19.67;4.25;;;;;;;8.99;92.65;102644.88;5032861;28;20500;-69
2023/05/30 02:27:17;;;;;;;14.32;3.83;;;;;;;8.95;92.65;102639.59;5033746;28;20036;-69
2023/05/30 02:29:43;;;;;;;17.58;3.85;;;;;;;8.84;94.11;102639.47;5033336;28;20029;-69
2023/05/30 02:32:08;;;;;;;18.17;4.38;;;;;;;8.88;93.74;102633.44;5033196;28;20033;-69
2023/05/30 02:34:33;;;;;;;14.30;3.78;;;;;;;8.74;94.16;102624.63;5033350;28;20465;-69
2023/05/30 02:37:00;;;;;;;21.27;4.20;;;;;;;8.83;94.73;102645.53;5033425;28;20068;-69
2023/05/30 02:39:25;;;;;;;14.93;3.90;;;;;;;8.75;94.23;102635.03;5032414;28;20032;-69
2023/05/30 02:41:50;;;;;;;19.63;4.40;;;;;;;8.81;95.39;102642.03;5033020;28;20096;-69
2023/05/30 02:44:16;;;;;;;18.35;4.30;;;;;;;8.78;95.49;102639.41;5033055;28;20041;-69
2023/05/30 02:46:41;;;;;;;20.73;4.18;;;;;;;8.74;95.98;102637.63;5031403;28;20116;-69
2023/05/30 02:49:06;;;;;;;17.70;4.35;;;;;;;8.71;95.93;102629.78;5033230;28;20106;-69
2023/05/30 02:51:32;;;;;;;15.05;4.35;;;;;;;8.65;96.16;102635.75;5033070;28;20021;-69
2023/05/30 02:53:57;;;;;;;18.90;3.83;;;;;;;8.65;96.12;102625.38;5032382;28;20037;-69
2023/05/30 02:56:27;;;;;;;15.13;4.68;;;;;;;8.66;96.49;102634.91;5032364;28;20071;-69
2023/05/30 02:58:54;;;;;;;17.23;4.93;;;;;;;8.65;96.50;102627.97;5032637;28;20025;-69
2023/05/30 03:01:19;;;;;;;12.32;4.18;;;;;;;8.63;96.82;102633.16;5032421;28;20025;-69
2023/05/30 03:03:45;;;;;;;14.13;4.35;;;;;;;8.64;96.67;102619.28;5032889;28;20087;-69
2023/05/30 03:06:12;;;;;;;10.43;3.85;;;;;;;8.63;96.45;102627.97;5033142;28;20483;-69
2023/05/30 03:08:37;;;;;;;15.70;4.45;;;;;;;8.58;97.19;102616.63;5031882;28;20025;-69
2023/05/30 03:11:03;;;;;;;18.13;4.10;;;;;;;8.61;97.16;102634.00;5032539;28;20025;-69
2023/05/30 03:13:28;;;;;;;12.23;4.22;;;;;;;8.59;97.56;102640.88;5032581;28;20041;-69
2023/05/30 03:15:53;;;;;;;15.00;5.10;;;;;;;8.56;96.96;102644.31;5031763;28;20034;-69
2023/05/30 03:18:18;;;;;;;12.18;4.47;;;;;;;8.53;96.94;102643.41;5032673;28;20118;-69
2023/05/30 03:20:44;;;;;;;16.48;4.18;;;;;;;8.54;97.65;102653.81;5031645;28;20056;-69
2023/05/30 03:23:09;;;;;;;17.27;5.45;;;;;;;8.53;97.72;102646.00;5032276;28;20120;-69
2023/05/30 03:25:35;;;;;;;18.80;4.18;;;;;;;8.58;97.82;102650.41;5032590;28;20049;-69
2023/05/30 03:28:05;;;;;;;18.80;4.65;;;;;;;8.62;98.82;102660.00;5031524;28;20033;-69
2023/05/30 03:30:31;;;;;;;15.68;4.45;;;;;;;8.70;97.68;102654.91;5032601;28;20037;-69
2023/05/30 03:32:56;;;;;;;20.27;4.68;;;;;;;8.80;98.03;102661.09;5032356;28;20045;-69
2023/05/30 03:35:22;;;;;;;15.02;4.25;;;;;;;8.92;97.46;102656.03;5031620;28;20025;-69
2023/05/30 03:37:47;;;;;;;18.15;4.47;;;;;;;8.99;97.42;102654.38;5032198;28;20057;-69
2023/05/30 03:40:12;;;;;;;20.08;4.95;;;;;;;9.03;96.95;102659.66;5032434;28;20033;-69
2023/05/30 03:42:38;;;;;;;19.75;4.50;;;;;;;9.07;96.29;102664.03;5031059;28;20029;-69
2023/05/30 03:45:03;;;;;;;20.15;4.60;;;;;;;9.13;96.09;102665.84;5032420;28;20385;-69
2023/05/30 03:47:29;;;;;;;19.55;4.80;;;;;;;9.19;95.58;102673.72;5032152;28;20037;-69
2023/05/30 03:49:54;;;;;;;17.35;4.82;;;;;;;9.17;95.57;102677.16;5031052;28;20050;-69
2023/05/30 03:52:19;;;;;;;20.20;4.90;;;;;;;9.20;95.99;102678.06;5032381;28;20021;-69
2023/05/30 03:54:45;;;;;;;13.25;4.85;;;;;;;9.18;95.51;102673.69;5031917;28;20029;-69
2023/05/30 03:57:11;;;;;;;18.75;4.65;;;;;;;9.17;95.85;102679.75;5031324;28;20499;-69
2023/05/30 03:59:36;;;;;;;14.07;4.45;;;;;;;9.15;95.32;102677.13;5032297;28;20049;-69
2023/05/30 04:02:01;;;;;;;20.20;5.15;;;;;;;9.16;95.17;102680.63;5031940;28;20495;-69
2023/05/30 04:04:27;;;;;;;20.38;4.90;;;;;;;9.09;95.83;102670.16;5031281;28;20044;-69
2023/05/30 04:06:53;;;;;;;20.15;4.43;;;;;;;9.17;95.72;102675.44;5031665;28;20026;-69
2023/05/30 04:09:19;;;;;;;15.82;5.13;;;;;;;9.25;96.16;102680.72;5032365;28;20108;-69
2023/05/30 04:11:44;;;;;;;14.52;5.50;;;;;;;9.25;96.26;102676.38;5030792;28;20109;-69
2023/05/30 04:14:09;;;;;;;21.08;5.18;;;;;;;9.30;95.63;102679.91;5032148;28;20080;-69
2023/05/30 04:16:35;;;;;;;16.33;4.78;;;;;;;9.35;95.39;102677.34;5032119;28;20025;-69
2023/05/30 04:19:01;;;;;;;18.38;4.72;;;;;;;9.36;94.88;102679.13;5031047;28;20029;-69
2023/05/30 04:21:26;;;;;;;13.60;4.80;;;;;;;9.31;94.64;102666.03;5031906;28;20033;-69
2023/05/30 04:23:52;;;;;;;17.08;5.35;;;;;;;9.33;95.20;102672.13;5035455;28;20033;-69
2023/05/30 04:26:17;;;;;;;18.45;5.03;;;;;;;9.32;95.34;102672.13;5035057;28;20464;-69
2023/05/30 04:28:43;;;;;;;17.33;5.32;;;;;;;9.33;96.14;102673.88;5035398;28;20021;-69
2023/05/30 04:31:10;;;;;;;14.25;4.60;;;;;;;9.39;95.27;102684.34;5035344;28;20116;-69
2023/05/30 04:33:35;;;;;;;16.98;4.75;;;;;;;9.42;95.65;102668.78;5036013;28;20030;-69
2023/05/30 04:36:06;;;;;;;20.58;5.38;;;;;;;9.47;94.94;102666.22;5035549;28;20056;-69
2023/05/30 04:38:34;;;;;;;21.00;4.93;;;;;;;9.52;94.98;102675.81;5034936;28;20037;-69
2023/05/30 04:41:01;;;;;;;17.30;5.20;;;;;;;9.67;95.19;102684.63;5035229;28;20022;-69
2023/05/30 04:43:27;;;;;;;18.08;5.30;;;;;;;9.81;94.07;102683.03;5035504;28;20043;-69
2023/05/30 04:45:53;;;;;;;18.08;5.82;;;;;;;9.87;94.02;102677.88;5034469;28;20033;-69
2023/05/30 04:48:18;;;;;;;14.82;5.55;;;;;;;9.84;93.08;102676.13;5035542;28;20088;-69
2023/05/30 04:50:46;;;;;;;20.63;5.18;;;;;;;9.79;93.20;102663.91;5035326;28;20033;-69
2023/05/30 04:53:15;;;;;;;15.77;5.35;;;;;;;9.82;93.44;102674.38;5034933;28;20091;-69
2023/05/30 04:55:44;;;;;;;17.17;5.05;;;;;;;9.90;93.93;102671.81;5035016;28;20107;-69
2023/05/30 04:58:13;;;;;;;18.83;5.68;;;;;;;9.93;93.08;102671.84;5027946;28;20475;-69
2023/05/30 05:00:39;;;;;;;22.17;5.60;;;;;;;9.98;92.85;102673.63;5034458;28;20033;-69
2023/05/30 05:03:05;;;;;;;23.50;6.25;;;;;;;10.05;93.19;102666.72;5034883;28;20447;-69
2023/05/30 05:05:31;;;;;;;18.40;5.40;;;;;;;10.12;92.39;102672.88;5035369;28;20114;-69
2023/05/30 05:07:56;;;;;;;15.18;5.28;;;;;;;10.12;91.87;102672.88;5033867;28;20540;-69
2023/05/30 05:10:21;;;;;;;14.68;5.95;;;;;;;10.15;91.94;102673.75;5035374;28;20097;-69
2023/05/30 05:12:47;;;;;;;15.30;5.25;;;;;;;10.19;91.36;102678.13;5035125;28;20469;-69
2023/05/30 05:15:13;;;;;;;15.35;5.63;;;;;;;10.21;91.63;102671.19;5034260;28;20083;-69
2023/05/30 05:17:38;;;;;;;16.80;5.47;;;;;;;10.29;91.72;102673.88;5035017;28;20021;-69
2023/05/30 05:20:05;;;;;;;13.20;5.43;;;;;;;10.30;91.67;102675.66;5034729;28;20033;-69
2023/05/30 05:22:31;;;;;;;12.70;5.20;;;;;;;10.35;90.77;102681.75;5033956;28;20079;-69
2023/05/30 05:24:57;;;;;;;17.65;5.65;;;;;;;10.40;91.18;102672.25;5034450;28;20041;-69
2023/05/30 05:27:22;;;;;;;17.42;6.13;;;;;;;10.46;89.87;102677.50;5033847;28;20069;-69
2023/05/30 05:29:48;;;;;;;19.67;5.85;;;;;;;10.50;90.06;102671.44;5034625;28;20034;-69
2023/05/30 05:32:13;;;;;;;15.65;5.43;;;;;;;10.49;89.50;102668.78;5034632;28;20029;-69
2023/05/30 05:34:39;;;;;;;17.25;6.03;;;;;;;10.50;89.31;102679.25;5033606;28;20124;-69
2023/05/30 05:37:05;;;;;;;16.90;5.35;;;;;;;10.50;89.29;102657.53;5034529;28;20034;-69
2023/05/30 05:39:30;;;;;;;16.17;5.63;;;;;;;10.66;88.90;102680.22;5034726;28;20048;-69
2023/05/30 05:41:56;;;;;;;15.60;5.93;;;;;;;10.72;89.53;102668.94;5033446;28;20048;-69
2023/05/30 05:44:21;;;;;;;17.55;5.63;;;;;;;10.84;88.89;102665.50;5034122;28;20053;-69
2023/05/30 05:46:46;;;;;;;16.50;5.75;;;;;;;10.89;88.90;102664.69;5034378;28;20037;-69
2023/05/30 05:49:11;;;;;;;15.38;4.95;;;;;;;11.02;87.31;102666.47;5033395;28;20051;-69
2023/05/30 05:51:37;;;;;;;17.40;6.20;;;;;;;11.11;86.64;102677.78;5034310;28;20026;-69
2023/05/30 05:54:02;;;;;;;15.95;5.78;;;;;;;11.19;86.23;102673.50;5034269;28;20033;-69
2023/05/30 05:56:27;;;;;;;14.07;5.43;;;;;;;11.32;86.50;102672.66;5033875;28;20032;-69
2023/05/30 05:58:53;;;;;;;14.50;5.20;;;;;;;11.34;84.82;102673.50;5034145;28;20025;-69
2023/05/30 06:01:18;;;;;;;19.90;5.93;;;;;;;11.23;83.78;102667.41;5034070;28;20533;-69
2023/05/30 06:03:44;;;;;;;14.02;6.03;;;;;;;11.24;83.44;102685.66;5033271;28;20044;-69
2023/05/30 06:06:09;;;;;;;15.60;5.38;;;;;;;11.21;82.45;102688.25;5033847;28;20366;-69
2023/05/30 06:08:36;;;;;;;16.60;6.25;;;;;;;11.23;82.33;102688.28;5034295;28;20025;-69
2023/05/30 06:11:01;;;;;;;16.85;5.30;;;;;;;11.29;82.56;102692.66;5033111;28;20040;-69
2023/05/30 06:13:26;;;;;;;17.35;5.32;;;;;;;11.43;83.08;102683.97;5034212;28;20401;-69
2023/05/30 06:15:52;;;;;;;14.95;5.53;;;;;;;11.58;82.30;102692.75;5033831;28;20075;-69
2023/05/30 06:18:17;;;;;;;16.77;5.90;;;;;;;11.65;81.78;102686.66;5033101;28;20523;-70
2023/05/30 06:20:42;;;;;;;16.27;5.97;;;;;;;11.66;80.85;102688.38;5033726;28;20025;-69
2023/05/30 06:23:07;;;;;;;19.83;6.00;;;;;;;11.66;80.22;102685.78;5033646;28;20354;-69
2023/05/30 06:25:33;;;;;;;14.25;5.50;;;;;;;11.73;80.61;102691.00;5033197;28;20512;-69
2023/05/30 06:27:58;;;;;;;11.93;5.55;;;;;;;11.72;79.23;102675.31;5033637;28;20473;-69
2023/05/30 06:30:23;;;;;;;11.75;5.30;;;;;;;11.81;79.03;102691.03;5033718;28;20380;-69
2023/05/30 06:32:49;;;;;;;15.50;6.35;;;;;;;11.83;79.18;102691.88;5032680;28;20108;-69
2023/05/30 06:35:14;;;;;;;15.57;6.35;;;;;;;11.84;79.60;102691.06;5033608;28;20492;-69
2023/05/30 06:37:40;;;;;;;16.75;5.88;;;;;;;11.96;78.59;102695.41;5032449;28;20029;-69
2023/05/30 06:40:07;;;;;;;16.27;5.38;;;;;;;11.99;78.18;102679.72;5033696;28;20033;-69
2023/05/30 06:42:33;;;;;;;15.00;5.38;;;;;;;12.09;78.83;102685.81;5033527;28;20029;-69
2023/05/30 06:44:58;;;;;;;11.10;5.32;;;;;;;12.28;78.81;102676.22;5032072;28;20091;-69
2023/05/30 06:47:23;;;;;;;17.77;5.60;;;;;;;12.44;77.44;102684.94;5033536;28;20026;-69
2023/05/30 06:49:49;;;;;;;13.77;6.13;;;;;;;12.58;76.20;102683.13;5032800;28;20515;-69
2023/05/30 06:52:14;;;;;;;16.20;5.68;;;;;;;12.74;75.61;102682.22;5032630;28;20037;-69
2023/05/30 06:54:39;;;;;;;15.55;5.75;;;;;;;12.83;74.75;102686.56;5032973;28;20026;-69
2023/05/30 06:57:05;;;;;;;16.63;5.80;;;;;;;12.88;74.17;102688.31;5033482;28;20025;-70
2023/05/30 06:59:34;;;;;;;15.80;5.97;;;;;;;12.91;74.10;102689.13;5032417;28;20083;-69
2023/05/30 07:02:00;;;;;;;13.85;5.72;;;;;;;13.02;74.40;102693.47;5032670;28;20034;-69
2023/05/30 07:04:26;;;;;;;15.52;5.47;;;;;;;13.20;73.67;102691.63;5032880;28;20021;-69
2023/05/30 07:06:52;;;;;;;12.93;5.57;;;;;;;13.30;72.22;102698.59;5031985;28;20049;-69
2023/05/30 07:09:17;;;;;;;16.00;6.05;;;;;;;13.35;73.20;102691.59;5033267;28;20053;-69
2023/05/30 07:11:42;;;;;;;12.88;5.55;;;;;;;13.39;72.67;102692.44;5032708;28;20456;-69
2023/05/30 07:14:08;;;;;;;18.50;6.13;;;;;;;13.25;70.11;102710.88;5032139;28;20028;-69
2023/05/30 07:16:33;;;;;;;13.98;5.90;;;;;;;13.11;71.86;102698.69;5033117;28;20443;-69
2023/05/30 07:18:58;;;;;;;14.65;5.75;;;;;;;12.95;70.67;102701.34;5032389;28;20060;-69
2023/05/30 07:21:28;;;;;;;12.63;5.65;;;;;;;12.77;72.51;102683.97;5031861;28;20048;-69
2023/05/30 07:23:53;;;;;;;13.88;5.93;;;;;;;12.82;72.14;102721.47;5032061;28;20061;-70
2023/05/30 07:26:18;;;;;;;16.05;5.53;;;;;;;12.65;71.40;102711.03;5032838;28;20474;-69
2023/05/30 07:28:43;;;;;;;17.25;5.80;;;;;;;12.29;72.69;102688.41;5031430;28;20029;-69
2023/05/30 07:31:09;;;;;;;13.18;6.60;;;;;;;12.41;73.82;102711.94;5032665;28;20029;-69
2023/05/30 07:33:34;;;;;;;15.90;6.68;;;;;;;12.62;74.65;102705.78;5032567;28;20489;-69
2023/05/30 07:35:59;;;;;;;14.52;5.85;;;;;;;12.94;71.84;102707.47;5031260;28;20113;-69
2023/05/30 07:38:25;;;;;;;15.80;6.47;;;;;;;13.26;72.63;102707.34;5032567;28;20101;-69
2023/05/30 07:40:50;;;;;;;11.90;6.10;;;;;;;13.70;70.57;102709.72;5032026;28;20025;-69
2023/05/30 07:43:15;;;;;;;14.95;6.25;;;;;;;14.07;67.89;102705.97;5032012;28;20030;-69
2023/05/30 07:45:41;;;;;;;15.00;6.03;;;;;;;14.24;66.87;102704.91;5032135;28;20466;-69
2023/05/30 07:48:06;;;;;;;14.02;5.55;;;;;;;14.06;65.65;102710.34;5031465;28;20460;-69
2023/05/30 07:50:31;;;;;;;20.85;6.30;;;;;;;13.91;65.87;102711.31;5032450;28;20034;-69
2023/05/30 07:52:56;;;;;;;14.98;6.30;;;;;;;13.74;66.08;102711.44;5031771;28;20029;-70
2023/05/30 07:55:22;;;;;;;15.07;5.50;;;;;;;13.59;67.21;102707.16;5031819;28;20029;-70
2023/05/30 07:57:47;;;;;;;15.40;5.90;;;;;;;13.47;69.23;102704.63;5031152;28;20022;-69
2023/05/30 08:00:13;;;;;;;15.98;5.80;;;;;;;13.33;69.26;102688.09;5032487;28;20067;-70
2023/05/30 08:02:38;;;;;;;15.80;6.07;;;;;;;13.29;69.41;102692.50;5030991;28;20474;-70
2023/05/30 08:05:04;;;;;;;15.20;6.88;;;;;;;13.20;68.85;102695.13;5031933;28;20036;-69
2023/05/30 08:07:32;;;;;;;14.10;5.80;;;;;;;13.45;69.24;102690.66;5032027;28;20021;-69
2023/05/30 08:09:58;;;;;;;15.38;6.90;;;;;;;13.81;67.88;102699.16;5030968;28;20041;-69
2023/05/30 08:12:28;;;;;;;15.40;6.43;;;;;;;13.93;66.65;102687.69;5032246;28;20064;-69
2023/05/30 08:14:54;;;;;;;13.20;5.90;;;;;;;14.24;65.82;102693.56;5031784;28;20421;-69
2023/05/30 08:17:23;;;;;;;12.27;6.30;;;;;;;14.52;66.13;102697.69;5031360;28;20057;-69
2023/05/30 08:19:50;;;;;;;17.13;6.35;;;;;;;14.81;62.94;102687.72;5031998;28;20049;-69
2023/05/30 08:22:15;;;;;;;12.95;6.22;;;;;;;14.94;63.77;102692.84;5031560;28;20021;-69
2023/05/30 08:24:41;;;;;;;15.35;6.20;;;;;;;15.23;63.76;102686.31;5030918;28;20080;-69
2023/05/30 08:27:06;;;;;;;13.07;6.05;;;;;;;15.36;62.41;102682.63;5032073;28;20037;-69
2023/05/30 08:29:33;;;;;;;9.65;5.43;;;;;;;15.44;62.34;102688.66;5032008;28;20036;-69
2023/05/30 08:31:58;;;;;;;15.82;6.05;;;;;;;15.19;60.69;102697.78;5031092;28;20041;-69
2023/05/30 08:34:24;;;;;;;13.00;6.20;;;;;;;14.66;61.05;102688.78;5032078;28;20022;-70
2023/05/30 08:36:51;;;;;;;15.02;6.10;;;;;;;14.48;62.56;102697.69;5031869;28;20116;-69
2023/05/30 08:39:16;;;;;;;12.10;5.93;;;;;;;14.54;62.93;102684.53;5031111;28;20083;-69
2023/05/30 08:41:42;;;;;;;11.43;6.15;;;;;;;14.61;62.46;102680.94;5031718;28;20030;-70
2023/05/30 08:44:07;;;;;;;16.00;6.68;;;;;;;14.75;62.12;102679.06;5031443;28;20377;-69
2023/05/30 08:46:35;;;;;;;12.77;6.13;;;;;;;15.02;63.76;102684.84;5031424;28;20396;-69
2023/05/30 08:49:01;;;;;;;14.55;6.80;;;;;;;14.99;60.05;102669.13;5031300;28;20115;-70
2023/05/30 08:51:29;;;;;;;11.60;6.03;;;;;;;14.90;61.13;102670.09;5031283;28;20026;-69
2023/05/30 08:53:58;;;;;;;12.43;5.90;;;;;;;14.95;61.57;102676.19;5031258;28;20035;-69
2023/05/30 08:56:32;;;;;;;10.95;6.18;;;;;;;14.99;60.67;102677.88;5031718;28;20040;-70
2023/05/30 08:59:00;;;;;;;;;;;;;;;15.10;62.17;102677.72;5030858;28;20559;-70
2023/05/30 09:01:25;;;;;;;12.07;6.40;;;;;;;15.19;60.08;102685.50;5031496;28;20295;-69
2023/05/30 09:03:51;;;;;;;15.27;6.70;;;;;;;15.13;59.46;102682.94;5031336;28;20036;-69
2023/05/30 09:06:17;;;;;;;10.60;6.28;;;;;;;15.20;58.45;102667.97;5030686;28;20033;-69
2023/05/30 09:08:45;;;;;;;12.32;6.38;;;;;;;15.27;59.38;102671.38;5033561;28;20116;-69
2023/05/30 09:11:11;;;;;;;13.57;7.07;;;;;;;15.20;57.42;102668.88;5035098;28;20470;-70
2023/05/30 09:13:37;;;;;;;20.27;7.32;;;;;;;15.30;58.55;102664.31;5034530;28;20033;-69
2023/05/30 09:16:02;;;;;;;14.90;6.70;;;;;;;15.51;59.57;102673.66;5035042;28;20124;-69
2023/05/30 09:18:33;;;;;;;11.18;6.90;;;;;;;15.46;58.44;102670.22;5034883;28;20022;-69
2023/05/30 09:20:59;;;;;;;14.10;6.45;;;;;;;15.48;59.24;102651.81;5033922;28;20033;-69
2023/05/30 09:23:24;;;;;;;16.48;6.65;;;;;;;15.68;57.09;102661.16;5034211;28;20035;-69
2023/05/30 09:25:51;;;;;;;17.88;6.70;;;;;;;15.72;57.52;102661.09;5029894;28;20064;-70
2023/05/30 09:28:24;;;;;;;15.20;6.97;;;;;;;15.88;57.47;102646.81;5033939;28;20030;-69
2023/05/30 09:30:57;;;;;;;16.15;6.80;;;;;;;16.07;57.60;102634.22;5034764;28;20109;-70
2023/05/30 09:33:23;;;;;;;14.65;7.30;;;;;;;16.18;55.05;102653.28;5034375;28;20057;-70
2023/05/30 09:35:56;;;;;;;15.88;7.10;;;;;;;16.17;55.82;102646.31;5034510;28;20092;-69
2023/05/30 09:38:24;;;;;;;19.65;6.85;;;;;;;16.25;56.32;102651.41;5034696;28;20029;-69
2023/05/30 09:40:54;;;;;;;11.27;6.80;;;;;;;16.41;55.93;102647.59;5033419;28;20429;-69
2023/05/30 09:43:53;;;;;;;13.88;7.20;;;;;;;16.39;55.89;102652.06;5034763;28;20107;-69
2023/05/30 09:46:19;;;;;;;15.70;8.07;;;;;;;16.45;56.06;102649.31;5022286;28;20041;-69
2023/05/30 09:48:45;;;;;;;16.13;7.40;;;;;;;16.65;55.42;102642.78;5033290;28;20041;-70
2023/05/30 09:51:11;;;;;;;15.00;7.05;;;;;;;16.74;54.53;102627.66;5034291;28;20028;-70
2023/05/30 09:53:36;;;;;;;13.65;7.25;;;;;;;16.85;53.08;102640.63;5034596;28;20037;-69
2023/05/30 09:56:02;;;;;;;13.88;6.78;;;;;;;16.97;53.91;102635.09;5033453;28;20520;-69
2023/05/30 09:58:29;;;;;;;11.27;7.25;;;;;;;17.20;53.73;102631.06;5034255;28;20441;-69
2023/05/30 10:00:57;;;;;;;10.55;6.88;;;;;;;17.32;51.95;102634.28;5034033;28;20121;-70
2023/05/30 10:03:42;;;;;;;12.07;7.50;;;;;;;17.50;53.29;102630.38;5033548;28;20036;-70
2023/05/30 10:06:13;;;;;;;11.93;7.07;;;;;;;17.63;52.49;102630.06;5034175;28;20100;-70
2023/05/30 10:08:42;;;;;;;14.55;6.82;;;;;;;17.70;51.21;102629.88;5032950;28;20025;-70
2023/05/30 10:11:08;;;;;;;12.68;7.03;;;;;;;17.88;53.65;102632.97;5034276;28;20037;-70
2023/05/30 10:13:33;;;;;;;13.10;7.00;;;;;;;17.96;50.76;102620.47;5034194;28;20087;-69
2023/05/30 10:16:01;;;;;;;13.40;7.35;;;;;;;18.01;51.26;102626.47;5032891;28;20416;-70
2023/05/30 10:18:29;;;;;;;14.07;8.05;;;;;;;18.04;50.27;102631.66;5033652;28;20485;-70
2023/05/30 10:20:57;;;;;;;12.63;7.50;;;;;;;17.98;49.39;102621.28;5033068;28;20041;-70
2023/05/30 10:23:22;;;;;;;13.55;7.85;;;;;;;17.93;49.02;102621.41;5033041;28;20033;-69
2023/05/30 10:25:51;;;;;;;14.98;7.95;;;;;;;17.96;50.25;102629.25;5033553;28;20023;-69
2023/05/30 10:28:23;;;;;;;18.00;7.68;;;;;;;18.00;50.40;102624.75;5033697;28;20034;-70
2023/05/30 10:30:50;;;;;;;11.93;6.97;;;;;;;18.15;50.63;102629.63;5032476;28;20021;-70
2023/05/30 10:33:18;;;;;;;11.93;7.22;;;;;;;18.28;48.08;102624.00;5033782;28;20049;-69
2023/05/30 10:35:46;;;;;;;13.57;8.05;;;;;;;18.28;47.87;102618.72;5033388;28;20026;-69
2023/05/30 10:38:12;;;;;;;16.95;8.80;;;;;;;18.25;47.60;102619.69;5032916;28;20026;-69
2023/05/30 10:41:05;;;;;;;16.27;7.95;;;;;;;18.36;48.58;102607.03;5033346;28;20128;-70
2023/05/30 10:43:49;;;;;;;14.20;7.05;;;;;;;18.38;49.34;102599.94;5033484;28;20034;-69
2023/05/30 10:46:46;;;;;;;13.77;6.88;;;;;;;18.68;49.59;102607.91;5028728;28;20104;-70
2023/05/30 10:49:22;;;;;;;13.98;7.70;;;;;;;18.70;46.93;102608.69;5029373;28;20050;-70
2023/05/30 10:52:04;;;;;;;17.00;7.57;;;;;;;18.59;47.77;102584.38;5032408;28;20037;-70
2023/05/30 10:54:31;;;;;;;13.40;7.43;;;;;;;18.83;47.66;102588.09;5033494;28;20033;-70
2023/05/30 10:56:58;;;;;;;16.17;8.57;;;;;;;19.01;46.79;102599.91;5032909;28;20032;-70
2023/05/30 10:59:24;;;;;;;13.90;7.68;;;;;;;19.19;46.59;102594.00;5032220;28;20466;-69
2023/05/30 11:02:00;;;;;;;13.27;7.47;;;;;;;19.36;46.94;102580.28;5032772;28;20036;-70
2023/05/30 11:04:32;;;;;;;12.82;7.35;;;;;;;19.36;47.08;102591.72;5033125;28;20113;-69
2023/05/30 11:06:58;;;;;;;16.20;8.20;;;;;;;19.20;45.45;102595.75;5031761;28;20477;-70
2023/05/30 11:09:23;;;;;;;15.68;8.15;;;;;;;19.20;46.75;102590.47;5033127;28;20027;-69
2023/05/30 11:11:56;;;;;;;13.85;7.43;;;;;;;19.24;46.60;102572.72;5032458;28;20485;-70
2023/05/30 11:14:30;;;;;;;14.88;7.50;;;;;;;19.28;46.24;102583.16;5025183;28;20091;-70
2023/05/30 11:17:06;;;;;;;17.23;7.75;;;;;;;19.34;46.25;102584.75;5032668;28;20025;-69
2023/05/30 11:19:38;;;;;;;18.50;7.70;;;;;;;19.41;45.17;102579.19;5025049;28;20031;-70